Share

Vigie, St. Lucia

11:00 AM AST on April 24, 2014 (GMT -0400)
Le Lamentin (TFFF) Elev 13 ft | 14.59 °N, 61.00 °W | Change Station

Current weather conditions updated 30 minutes ago

Mostly Cloudy
Mostly Cloudy
84 °F
Feels Like 90 °F
N
16
Wind Variable Wind from East
Sunrise 5:45 AM
Sunset 6:18 PM
Moon Waning Crescent

Today is forecast to be nearly the same temperature as yesterday.

Pressure 30.01 in
Visibility 6.2 miles
Clouds Mostly Cloudy 2700 ft
Mostly Cloudy 3500 ft
Mostly Cloudy 4200 ft
Heat Index 90 °F
Dew Point 72 °F
Humidity 66%
Rainfall 0.00 in
Snow Depth Not available.
UV 9 out of 16
Pollen Not available.
Air Quality Not available.
Flu Activity Not available.
METAR TFFF 241430Z AUTO 08014KT 9999 BKN027 BKN035 BKN042 29/22 Q1016

More Conditions Fewer Conditions

Pressure 30.01 in
Visibility 6.2 miles
Clouds Mostly Cloudy 2700 ft
Mostly Cloudy 3500 ft
Mostly Cloudy 4200 ft
Heat Index 90 °F
Dew Point 72 °F
Humidity 66%
Rainfall 0.00 in
Snow Depth Not available.
UV 9 out of 16
Pollen Not available.
Air Quality Not available.
Flu Activity Not available.
METAR TFFF 241430Z AUTO 08014KT 9999 BKN027 BKN035 BKN042 29/22 Q1016

More Conditions Fewer Conditions

10-Day Weather Forecast

Almanac

Astronomy

Apr. 24, 2014 Rise Set
Actual Time 5:45 AM AST 6:18 PM AST
Civil Twilight 5:23 AM AST 6:40 PM AST
Nautical Twilight 4:57 AM AST 7:06 PM AST
Astronomical Twilight 4:31 AM AST 7:32 PM AST
Moon 2:03 AM AST 2:14 PM AST
Length of Visible Light 13h 17m
Length of Day
12h 33m
Tomorrow will be 0m 42s longer.
Waning Crescent, 25% of the Moon is Illuminated
Today
Waning Crescent
Apr 29
New
May 6
First Quarter
May 14
Full
May 21
Last Quarter

Today's Extremes

Country Highs Country Lows

Community

  • Sunset at Apalachicola Bay, Florida
    Sunset at Apalachicola Bay, Florida
  • Clouds mov'n in
    Clouds mov'n in
  • Stacked
    Stacked
  • clouds approaching Red Sox Nation
    clouds approaching Red Sox Nation
  • Balance
    Balance

WunderPhotos

Upload Photos

1,704,641 photos uploaded!

WunderBlogs® & News

By Dr. Jeff Masters
Director of Meteorology, Weather Underground
By Kari Strenfel
Meteorologist, Weather Underground
By Christopher C. Burt
Weather Historian, Weather Underground
April 24, 2014
April 24, 2014
April 24, 2014

Nearby

Snow Depth

Not available.

Coastal Water Temperatures

Place Temperature
No Stations Reporting

Earthquake Activity

City Distance Mag. Time & Date
No recent earthquake activity has been reported nearby.
Minimum magnitude displayed is 2.5.

Nearby Weather Stations

There are no personal weather stations in this area.

What do you think?

We're not finished. Please let us know what you like, what you don't like, and what you are still missing.